Time;durP1;ratioP1;P1;durP2;ratioP2;P2;SDS_P1;SDS_P2;PMS_P1;PMS_P2;Temp;Humidity;BMP_temperature;BMP_pressure;BME280_temperature;BME280_humidity;BME280_pressure;Samples;Min_cycle;Max_cycle;Signal;HPM_P1;HPM_P2
2023/03/31 00:00:18;;;;;;;1.38;1.00;;;;;;;;;;5012442;28;20060;-76
2023/03/31 00:02:44;;;;;;;0.20;0.20;;;;;;;;;;5007622;28;20099;-76
2023/03/31 00:05:16;;;;;;;0.20;0.10;;;;;;;;;;5009114;28;20388;-76
2023/03/31 00:07:42;;;;;;;0.47;0.47;;;;;;;;;;5019440;28;20076;-76
2023/03/31 00:10:09;;;;;;;0.25;0.25;;;;;;;;;;5013354;28;20044;-76
2023/03/31 00:12:35;;;;;;;0.20;0.10;;;;;;;;;;4983135;28;20599;-75
2023/03/31 00:15:01;;;;;;;0.20;0.10;;;;;;;;;;5010636;28;20045;-76
2023/03/31 00:17:27;;;;;;;0.20;0.10;;;;;;;;;;4993910;28;20037;-76
2023/03/31 00:19:59;;;;;;;0.52;0.52;;;;;;;;;;5010190;28;20127;-77
2023/03/31 00:22:26;;;;;;;3.53;2.92;;;;;;;;;;4994883;28;20043;-76
2023/03/31 00:24:52;;;;;;;0.20;0.10;;;;;;;;;;4996736;28;20067;-75
2023/03/31 00:27:18;;;;;;;0.20;0.10;;;;;;;;;;5012145;28;20482;-76
2023/03/31 00:29:44;;;;;;;0.20;0.10;;;;;;;;;;5007695;28;20540;-76
2023/03/31 00:32:10;;;;;;;0.20;0.10;;;;;;;;;;5016814;28;20068;-77
2023/03/31 00:34:37;;;;;;;0.20;0.10;;;;;;;;;;5007252;28;20090;-76
2023/03/31 00:37:04;;;;;;;0.20;0.10;;;;;;;;;;5004861;28;20037;-75
2023/03/31 00:39:32;;;;;;;0.20;0.10;;;;;;;;;;5010872;28;20485;-76
2023/03/31 00:41:58;;;;;;;0.28;0.22;;;;;;;;;;5015088;28;20447;-76
2023/03/31 00:44:24;;;;;;;0.20;0.10;;;;;;;;;;5010179;28;20107;-76
2023/03/31 00:46:51;;;;;;;0.20;0.10;;;;;;;;;;5018614;28;20044;-76
2023/03/31 00:49:33;;;;;;;0.20;0.10;;;;;;;;;;5015074;28;20095;-76
2023/03/31 00:52:02;;;;;;;0.20;0.10;;;;;;;;;;5015243;28;20357;-76
2023/03/31 00:54:32;;;;;;;0.20;0.10;;;;;;;;;;4997777;28;20044;-76
2023/03/31 00:57:01;;;;;;;0.20;0.10;;;;;;;;;;5015435;28;20037;-77
2023/03/31 00:59:29;;;;;;;1.00;0.90;;;;;;;;;;4999387;28;20037;-76
2023/03/31 01:02:01;;;;;;;0.20;0.10;;;;;;;;;;4999483;28;20049;-77
2023/03/31 01:04:28;;;;;;;0.20;0.10;;;;;;;;;;5008660;28;20044;-77
2023/03/31 01:06:59;;;;;;;0.20;0.10;;;;;;;;;;5013349;28;20033;-77
2023/03/31 01:09:29;;;;;;;0.20;0.10;;;;;;;;;;4993949;28;20041;-76
2023/03/31 01:11:56;;;;;;;0.20;0.10;;;;;;;;;;4998953;28;20519;-75
2023/03/31 01:14:22;;;;;;;0.20;0.10;;;;;;;;;;5009432;28;20037;-76
2023/03/31 01:16:48;;;;;;;0.20;0.10;;;;;;;;;;4993512;28;20199;-76
2023/03/31 01:19:21;;;;;;;0.20;0.10;;;;;;;;;;5009385;28;20163;-75
2023/03/31 01:22:14;;;;;;;0.82;0.75;;;;;;;;;;5015504;28;20048;-76
2023/03/31 01:24:46;;;;;;;0.20;0.20;;;;;;;;;;4982331;28;20119;-76
2023/03/31 01:27:38;;;;;;;1.13;1.10;;;;;;;;;;5015416;28;20049;-76
2023/03/31 01:30:20;;;;;;;0.20;0.10;;;;;;;;;;4964820;28;20487;-76
2023/03/31 01:32:58;;;;;;;0.20;0.10;;;;;;;;;;4999399;28;20056;-76
2023/03/31 01:35:42;;;;;;;0.20;0.10;;;;;;;;;;5016674;28;20564;-75
2023/03/31 01:38:18;;;;;;;0.20;0.10;;;;;;;;;;5019969;28;20123;-75
2023/03/31 01:40:47;;;;;;;0.20;0.10;;;;;;;;;;5017919;28;20033;-76
2023/03/31 01:43:16;;;;;;;0.20;0.13;;;;;;;;;;4998745;28;20048;-76
2023/03/31 01:45:54;;;;;;;0.20;0.10;;;;;;;;;;4997662;28;20644;-76
2023/03/31 01:48:28;;;;;;;0.20;0.10;;;;;;;;;;5017030;28;20055;-76
2023/03/31 01:51:01;;;;;;;0.20;0.10;;;;;;;;;;4997424;28;20064;-76
2023/03/31 01:53:45;;;;;;;0.20;0.10;;;;;;;;;;5016605;28;20065;-76
2023/03/31 01:56:14;;;;;;;0.20;0.10;;;;;;;;;;5010489;28;20046;-76
2023/03/31 01:58:42;;;;;;;0.20;0.10;;;;;;;;;;5015732;28;20041;-76
2023/03/31 02:01:15;;;;;;;0.20;0.13;;;;;;;;;;5016246;28;20041;-76
2023/03/31 02:03:44;;;;;;;0.20;0.20;;;;;;;;;;5018736;28;20041;-76
2023/03/31 02:06:17;;;;;;;0.20;0.10;;;;;;;;;;4999337;28;20067;-76
2023/03/31 02:08:46;;;;;;;0.20;0.10;;;;;;;;;;5030344;28;20048;-76
2023/03/31 02:11:12;;;;;;;0.20;0.20;;;;;;;;;;4997660;28;20723;-76
2023/03/31 02:13:40;;;;;;;0.20;0.20;;;;;;;;;;5015652;28;20557;-76
2023/03/31 02:16:08;;;;;;;0.20;0.20;;;;;;;;;;5011691;28;20040;-76
2023/03/31 02:18:36;;;;;;;0.20;0.10;;;;;;;;;;4999042;28;20397;-76
2023/03/31 02:21:03;;;;;;;0.20;0.10;;;;;;;;;;5004762;28;20037;-76
2023/03/31 02:23:31;;;;;;;0.20;0.10;;;;;;;;;;5004384;28;21790;-76
2023/03/31 02:26:17;;;;;;;0.20;0.10;;;;;;;;;;5037895;28;20572;-76
2023/03/31 02:28:43;;;;;;;0.20;0.10;;;;;;;;;;5021741;28;20057;-76
2023/03/31 02:31:12;;;;;;;0.20;0.10;;;;;;;;;;5016089;28;20048;-76
2023/03/31 02:33:38;;;;;;;0.20;0.10;;;;;;;;;;5000299;28;20096;-75
2023/03/31 02:36:05;;;;;;;0.20;0.10;;;;;;;;;;4998759;28;20076;-75
2023/03/31 02:38:33;;;;;;;0.20;0.10;;;;;;;;;;4997735;28;20051;-75
2023/03/31 02:40:59;;;;;;;0.20;0.10;;;;;;;;;;5009252;28;20037;-76
2023/03/31 02:43:25;;;;;;;0.20;0.15;;;;;;;;;;5016766;28;20090;-75
2023/03/31 02:45:51;;;;;;;0.20;0.10;;;;;;;;;;5013786;28;20103;-75
2023/03/31 02:48:20;;;;;;;0.20;0.10;;;;;;;;;;5017465;28;20048;-76
2023/03/31 02:50:55;;;;;;;0.20;0.10;;;;;;;;;;5005202;28;20063;-76
2023/03/31 02:53:28;;;;;;;0.20;0.10;;;;;;;;;;5015657;28;20037;-76
2023/03/31 02:56:03;;;;;;;0.50;0.50;;;;;;;;;;5017047;28;20040;-76
2023/03/31 02:58:48;;;;;;;0.20;0.10;;;;;;;;;;5019878;28;20036;-76
2023/03/31 03:01:33;;;;;;;0.20;0.20;;;;;;;;;;5017883;28;20045;-76
2023/03/31 03:04:15;;;;;;;0.20;0.10;;;;;;;;;;5018229;28;20075;-76
2023/03/31 03:06:43;;;;;;;0.28;0.28;;;;;;;;;;5005800;28;20448;-76
2023/03/31 03:09:16;;;;;;;0.20;0.10;;;;;;;;;;5014566;28;21006;-76
2023/03/31 03:11:54;;;;;;;0.20;0.10;;;;;;;;;;5013717;28;20048;-75
2023/03/31 03:14:39;;;;;;;0.20;0.10;;;;;;;;;;5019548;28;20041;-76
2023/03/31 03:17:14;;;;;;;0.20;0.10;;;;;;;;;;5012254;28;20084;-76
2023/03/31 03:19:41;;;;;;;0.20;0.10;;;;;;;;;;5002405;28;20053;-76
2023/03/31 03:22:07;;;;;;;0.20;0.10;;;;;;;;;;5014820;28;20654;-77
2023/03/31 03:24:34;;;;;;;0.20;0.10;;;;;;;;;;5013967;28;20093;-76
2023/03/31 03:27:00;;;;;;;0.20;0.10;;;;;;;;;;5014699;28;20418;-77
2023/03/31 03:29:27;;;;;;;0.95;0.45;;;;;;;;;;4998894;28;20051;-76
2023/03/31 03:31:53;;;;;;;0.32;0.32;;;;;;;;;;5012208;28;20041;-76
2023/03/31 03:34:19;;;;;;;1.00;0.25;;;;;;;;;;5013906;28;20037;-76
2023/03/31 03:36:45;;;;;;;0.20;0.10;;;;;;;;;;5013812;28;20047;-76
2023/03/31 03:39:12;;;;;;;0.20;0.10;;;;;;;;;;4998607;28;20041;-76
2023/03/31 03:41:38;;;;;;;0.20;0.10;;;;;;;;;;5012447;28;20103;-76
2023/03/31 03:44:04;;;;;;;0.20;0.10;;;;;;;;;;5017880;28;20060;-76
2023/03/31 03:46:30;;;;;;;0.20;0.10;;;;;;;;;;5013093;28;20044;-76
2023/03/31 03:48:56;;;;;;;0.35;0.22;;;;;;;;;;5013199;28;20037;-76
2023/03/31 03:51:23;;;;;;;0.20;0.10;;;;;;;;;;5000964;28;20043;-75
2023/03/31 03:53:49;;;;;;;0.20;0.10;;;;;;;;;;5013661;28;20046;-75
2023/03/31 03:56:15;;;;;;;0.20;0.00;;;;;;;;;;5014353;28;20128;-75
2023/03/31 03:58:41;;;;;;;0.20;0.10;;;;;;;;;;5010482;28;20041;-76
2023/03/31 04:01:07;;;;;;;0.50;0.47;;;;;;;;;;5015737;28;20083;-76
2023/03/31 04:03:33;;;;;;;0.20;0.10;;;;;;;;;;5011023;28;20700;-75
2023/03/31 04:05:59;;;;;;;0.20;0.15;;;;;;;;;;5011758;28;20045;-76
2023/03/31 04:08:25;;;;;;;0.20;0.10;;;;;;;;;;5010768;28;20238;-74
2023/03/31 04:10:51;;;;;;;0.32;0.30;;;;;;;;;;5002654;28;20475;-76
2023/03/31 04:13:18;;;;;;;0.20;0.10;;;;;;;;;;5012787;28;20079;-76
2023/03/31 04:15:44;;;;;;;0.20;0.10;;;;;;;;;;5003012;28;20035;-75
2023/03/31 04:18:21;;;;;;;0.20;0.13;;;;;;;;;;5003497;28;20061;-75
2023/03/31 04:20:53;;;;;;;0.20;0.10;;;;;;;;;;5015744;28;20044;-75
2023/03/31 04:23:20;;;;;;;0.20;0.10;;;;;;;;;;5013287;28;20593;-76
2023/03/31 04:25:48;;;;;;;2.35;1.58;;;;;;;;;;5000793;28;20045;-75
2023/03/31 04:28:14;;;;;;;0.20;0.10;;;;;;;;;;5014781;28;20049;-76
2023/03/31 04:30:40;;;;;;;0.20;0.10;;;;;;;;;;5013668;28;20676;-75
2023/03/31 04:33:07;;;;;;;0.20;0.10;;;;;;;;;;5029162;28;20405;-75
2023/03/31 04:35:48;;;;;;;0.20;0.10;;;;;;;;;;5012845;28;20040;-76
2023/03/31 04:38:19;;;;;;;0.20;0.10;;;;;;;;;;5005310;28;20085;-75
2023/03/31 04:40:49;;;;;;;0.20;0.10;;;;;;;;;;5009063;28;20039;-75
2023/03/31 04:43:15;;;;;;;0.20;0.10;;;;;;;;;;4991310;28;20045;-75
2023/03/31 04:45:41;;;;;;;0.20;0.10;;;;;;;;;;5041508;22;20045;-80
2023/03/31 04:48:08;;;;;;;0.20;0.10;;;;;;;;;;5027933;28;20048;-79
2023/03/31 04:50:34;;;;;;;0.20;0.10;;;;;;;;;;5010464;28;20174;-78
2023/03/31 04:53:00;;;;;;;0.20;0.10;;;;;;;;;;5030690;28;20080;-78
2023/03/31 04:55:26;;;;;;;0.20;0.10;;;;;;;;;;5016270;28;20060;-78
2023/03/31 04:57:52;;;;;;;0.20;0.10;;;;;;;;;;5015703;28;20071;-79
2023/03/31 05:00:19;;;;;;;0.20;0.10;;;;;;;;;;5013168;28;20037;-77
2023/03/31 05:02:45;;;;;;;1.05;0.30;;;;;;;;;;5009978;28;20214;-78
2023/03/31 05:05:11;;;;;;;0.30;0.20;;;;;;;;;;5014181;28;20041;-77
2023/03/31 05:07:37;;;;;;;0.20;0.10;;;;;;;;;;5004063;28;20433;-78
2023/03/31 05:10:03;;;;;;;0.20;0.10;;;;;;;;;;5011733;28;20033;-77
2023/03/31 05:12:33;;;;;;;0.20;0.10;;;;;;;;;;4996888;28;20045;-78
2023/03/31 05:14:59;;;;;;;0.20;0.10;;;;;;;;;;4995999;28;20044;-78
2023/03/31 05:17:25;;;;;;;0.20;0.10;;;;;;;;;;4997718;28;20040;-79
2023/03/31 05:19:51;;;;;;;0.20;0.10;;;;;;;;;;4998032;28;20041;-77
2023/03/31 05:22:19;;;;;;;0.20;0.10;;;;;;;;;;4998158;28;20722;-77
2023/03/31 05:24:45;;;;;;;0.20;0.10;;;;;;;;;;4998282;28;20069;-77
2023/03/31 05:27:12;;;;;;;0.32;0.22;;;;;;;;;;5027855;28;20448;-77
2023/03/31 05:29:38;;;;;;;0.20;0.10;;;;;;;;;;5012733;28;20038;-78
2023/03/31 05:32:04;;;;;;;0.20;0.10;;;;;;;;;;5011273;28;20053;-78
2023/03/31 05:34:30;;;;;;;0.20;0.10;;;;;;;;;;4995558;28;20052;-77
2023/03/31 05:36:56;;;;;;;0.20;0.10;;;;;;;;;;5004207;28;20037;-77
2023/03/31 05:39:22;;;;;;;0.20;0.10;;;;;;;;;;5006055;28;20037;-77
2023/03/31 05:41:48;;;;;;;0.20;0.10;;;;;;;;;;5010897;28;20052;-77
2023/03/31 05:44:14;;;;;;;0.20;0.10;;;;;;;;;;5008279;28;20044;-76
2023/03/31 05:46:41;;;;;;;0.20;0.20;;;;;;;;;;5010765;28;20033;-77
2023/03/31 05:49:07;;;;;;;0.20;0.15;;;;;;;;;;5015638;28;20030;-79
2023/03/31 05:51:33;;;;;;;0.20;0.10;;;;;;;;;;5010872;28;20033;-77
2023/03/31 05:53:59;;;;;;;0.20;0.15;;;;;;;;;;5017709;28;20567;-77
2023/03/31 05:56:26;;;;;;;0.20;0.10;;;;;;;;;;5013651;28;20040;-76
2023/03/31 05:58:52;;;;;;;0.20;0.10;;;;;;;;;;5014528;28;20048;-76
2023/03/31 06:01:20;;;;;;;0.20;0.10;;;;;;;;;;5012506;28;20114;-76
2023/03/31 06:03:46;;;;;;;0.20;0.10;;;;;;;;;;5012830;28;20608;-76
2023/03/31 06:06:13;;;;;;;0.20;0.10;;;;;;;;;;5016530;28;20037;-77
2023/03/31 06:08:40;;;;;;;0.20;0.10;;;;;;;;;;5016841;28;20069;-77
2023/03/31 06:11:06;;;;;;;0.20;0.10;;;;;;;;;;5008599;28;20432;-77
2023/03/31 06:13:33;;;;;;;0.20;0.10;;;;;;;;;;5009967;28;22016;-77
2023/03/31 06:16:00;;;;;;;0.20;0.13;;;;;;;;;;5006194;28;20586;-77
2023/03/31 06:18:30;;;;;;;0.20;0.10;;;;;;;;;;5001163;28;20045;-77
2023/03/31 06:20:57;;;;;;;0.20;0.10;;;;;;;;;;5006281;28;20049;-76
2023/03/31 06:23:23;;;;;;;0.20;0.10;;;;;;;;;;5016938;28;20049;-77
2023/03/31 06:25:49;;;;;;;0.30;0.20;;;;;;;;;;5000477;28;20071;-78
2023/03/31 06:28:15;;;;;;;0.28;0.17;;;;;;;;;;5011262;28;20041;-77
2023/03/31 06:30:41;;;;;;;0.20;0.10;;;;;;;;;;5000724;28;20477;-77
2023/03/31 06:33:07;;;;;;;0.45;0.30;;;;;;;;;;5002968;28;20048;-77
2023/03/31 06:35:36;;;;;;;0.20;0.10;;;;;;;;;;5000933;28;20033;-77
2023/03/31 06:38:02;;;;;;;0.20;0.10;;;;;;;;;;5011189;28;20307;-77
2023/03/31 06:40:29;;;;;;;0.20;0.10;;;;;;;;;;5011385;28;20338;-76
2023/03/31 06:42:55;;;;;;;0.20;0.10;;;;;;;;;;5013710;28;20071;-77
2023/03/31 06:45:21;;;;;;;0.20;0.10;;;;;;;;;;5015087;28;20240;-76
2023/03/31 06:47:47;;;;;;;0.45;0.45;;;;;;;;;;5012978;28;20043;-78
2023/03/31 06:50:13;;;;;;;0.20;0.10;;;;;;;;;;5015250;28;20033;-77
2023/03/31 06:52:39;;;;;;;0.20;0.10;;;;;;;;;;5005659;28;20514;-77
2023/03/31 06:55:06;;;;;;;0.20;0.10;;;;;;;;;;5017976;28;20128;-77
2023/03/31 06:57:32;;;;;;;0.20;0.10;;;;;;;;;;5016955;28;20470;-76
2023/03/31 06:59:59;;;;;;;0.20;0.10;;;;;;;;;;4991295;28;20110;-78
2023/03/31 07:02:25;;;;;;;0.20;0.10;;;;;;;;;;4999439;28;20049;-76
2023/03/31 07:04:51;;;;;;;0.20;0.10;;;;;;;;;;5016124;28;20037;-77
2023/03/31 07:07:17;;;;;;;0.20;0.10;;;;;;;;;;5006994;28;20438;-77
2023/03/31 07:09:43;;;;;;;0.20;0.10;;;;;;;;;;5000300;28;20057;-76
2023/03/31 07:12:09;;;;;;;0.20;0.10;;;;;;;;;;4988751;28;20080;-76
2023/03/31 07:14:36;;;;;;;0.20;0.10;;;;;;;;;;5012991;28;20043;-76
2023/03/31 07:17:02;;;;;;;0.20;0.20;;;;;;;;;;5012654;28;20072;-77
2023/03/31 07:19:28;;;;;;;0.20;0.10;;;;;;;;;;5023472;28;20342;-75
2023/03/31 07:21:55;;;;;;;0.20;0.10;;;;;;;;;;5014297;28;20037;-77
2023/03/31 07:24:21;;;;;;;0.20;0.10;;;;;;;;;;4996947;28;20068;-77
2023/03/31 07:26:48;;;;;;;0.20;0.10;;;;;;;;;;5008205;28;20808;-76
2023/03/31 07:29:14;;;;;;;0.20;0.10;;;;;;;;;;5008016;28;20040;-77
2023/03/31 07:31:40;;;;;;;0.20;0.13;;;;;;;;;;5010426;28;20050;-78
2023/03/31 07:34:06;;;;;;;0.20;0.10;;;;;;;;;;5009010;28;20060;-78
2023/03/31 07:36:32;;;;;;;0.20;0.10;;;;;;;;;;4990101;28;20129;-77
2023/03/31 07:38:58;;;;;;;0.20;0.10;;;;;;;;;;4993403;28;20097;-77
2023/03/31 07:41:25;;;;;;;0.20;0.10;;;;;;;;;;4996865;28;20052;-79
2023/03/31 07:43:51;;;;;;;0.20;0.10;;;;;;;;;;5014461;28;20068;-78
2023/03/31 07:46:19;;;;;;;0.20;0.10;;;;;;;;;;5001416;28;20041;-79
2023/03/31 07:48:46;;;;;;;0.20;0.10;;;;;;;;;;5007117;28;20052;-78
2023/03/31 07:51:16;;;;;;;0.20;0.10;;;;;;;;;;5016044;28;20079;-78
2023/03/31 07:53:42;;;;;;;0.20;0.10;;;;;;;;;;5001344;28;20040;-79
2023/03/31 07:56:08;;;;;;;0.20;0.10;;;;;;;;;;5010670;28;20071;-78
2023/03/31 07:58:35;;;;;;;0.20;0.10;;;;;;;;;;5010017;28;20563;-78
2023/03/31 08:01:01;;;;;;;0.20;0.10;;;;;;;;;;5012235;28;20056;-79
2023/03/31 08:03:27;;;;;;;0.73;0.30;;;;;;;;;;5001498;28;20037;-79
2023/03/31 08:05:54;;;;;;;0.20;0.10;;;;;;;;;;5003405;28;20654;-79
2023/03/31 08:08:21;;;;;;;0.20;0.10;;;;;;;;;;4991518;28;20076;-78
2023/03/31 08:10:47;;;;;;;0.20;0.10;;;;;;;;;;5013633;28;20086;-78
2023/03/31 08:13:13;;;;;;;0.20;0.10;;;;;;;;;;5004756;28;20128;-79
2023/03/31 08:15:39;;;;;;;0.20;0.10;;;;;;;;;;4999274;28;20045;-78
2023/03/31 08:18:05;;;;;;;0.20;0.10;;;;;;;;;;5012738;28;20401;-79
2023/03/31 08:20:32;;;;;;;0.20;0.10;;;;;;;;;;5003761;28;20532;-78
2023/03/31 08:22:58;;;;;;;0.20;0.10;;;;;;;;;;5016271;28;20041;-79
2023/03/31 08:25:24;;;;;;;0.20;0.10;;;;;;;;;;5006637;28;20090;-79
2023/03/31 08:27:50;;;;;;;0.20;0.10;;;;;;;;;;5014221;28;20079;-79
2023/03/31 08:30:16;;;;;;;0.20;0.10;;;;;;;;;;5013985;28;20049;-81
2023/03/31 08:32:43;;;;;;;0.20;0.10;;;;;;;;;;5018939;28;20391;-79
2023/03/31 08:35:09;;;;;;;0.20;0.10;;;;;;;;;;4997883;28;20056;-79
2023/03/31 08:37:36;;;;;;;0.20;0.10;;;;;;;;;;5016259;28;20127;-80
2023/03/31 08:40:04;;;;;;;0.20;0.10;;;;;;;;;;5016718;28;20049;-78
2023/03/31 08:42:39;;;;;;;0.20;0.10;;;;;;;;;;5017787;28;20460;-79
2023/03/31 08:45:09;;;;;;;0.20;0.10;;;;;;;;;;4999616;28;20053;-78
2023/03/31 08:47:36;;;;;;;0.20;0.10;;;;;;;;;;5002036;28;20069;-78
2023/03/31 08:50:05;;;;;;;0.20;0.10;;;;;;;;;;5015784;28;20036;-78
2023/03/31 08:52:37;;;;;;;0.20;0.10;;;;;;;;;;5015773;28;20048;-80
2023/03/31 08:55:06;;;;;;;0.30;0.30;;;;;;;;;;5005816;28;20036;-80
2023/03/31 08:57:40;;;;;;;0.20;0.10;;;;;;;;;;5016392;28;20517;-79
2023/03/31 09:00:12;;;;;;;0.20;0.10;;;;;;;;;;5006608;28;20650;-79
2023/03/31 09:02:57;;;;;;;0.20;0.10;;;;;;;;;;5010820;28;20041;-80
2023/03/31 09:05:34;;;;;;;0.20;0.10;;;;;;;;;;5016602;28;20383;-80
2023/03/31 09:08:16;;;;;;;0.20;0.10;;;;;;;;;;5018209;28;20049;-79
2023/03/31 09:10:42;;;;;;;0.20;0.20;;;;;;;;;;4996166;28;20037;-79
2023/03/31 09:13:17;;;;;;;0.20;0.10;;;;;;;;;;5014142;28;20045;-79
2023/03/31 09:15:47;;;;;;;0.20;0.10;;;;;;;;;;5014662;28;20033;-79
2023/03/31 09:18:19;;;;;;;0.20;0.10;;;;;;;;;;5021323;28;20414;-82
2023/03/31 09:20:48;;;;;;;0.20;0.10;;;;;;;;;;5015936;28;20447;-79
2023/03/31 09:23:23;;;;;;;0.20;0.10;;;;;;;;;;5013020;28;20033;-79
2023/03/31 09:25:50;;;;;;;0.20;0.10;;;;;;;;;;5003211;28;20037;-79
2023/03/31 09:28:20;;;;;;;0.20;0.10;;;;;;;;;;5012638;28;20119;-80
2023/03/31 09:30:51;;;;;;;0.20;0.10;;;;;;;;;;5016169;28;20069;-80
2023/03/31 09:33:18;;;;;;;0.20;0.10;;;;;;;;;;5020528;28;20033;-79
2023/03/31 09:35:44;;;;;;;0.77;0.77;;;;;;;;;;5019994;28;20037;-79
2023/03/31 09:38:11;;;;;;;0.20;0.10;;;;;;;;;;5017191;28;20418;-78
2023/03/31 09:40:38;;;;;;;0.20;0.10;;;;;;;;;;4998727;28;20664;-79
2023/03/31 09:43:06;;;;;;;0.20;0.10;;;;;;;;;;4998518;28;20050;-80
2023/03/31 09:45:33;;;;;;;0.20;0.10;;;;;;;;;;4999743;28;20037;-79
2023/03/31 09:48:01;;;;;;;0.20;0.10;;;;;;;;;;5019776;28;20420;-79
2023/03/31 09:50:28;;;;;;;0.20;0.10;;;;;;;;;;5019057;28;23217;-82
2023/03/31 09:52:56;;;;;;;0.20;0.10;;;;;;;;;;5016200;28;20075;-80
2023/03/31 09:55:22;;;;;;;0.20;0.10;;;;;;;;;;5019141;28;20112;-80
2023/03/31 09:57:48;;;;;;;0.95;0.95;;;;;;;;;;5006543;28;20033;-80
2023/03/31 10:00:16;;;;;;;0.20;0.10;;;;;;;;;;5018807;28;20048;-79
2023/03/31 10:02:52;;;;;;;0.20;0.10;;;;;;;;;;5019581;28;20045;-80
2023/03/31 10:05:21;;;;;;;0.20;0.10;;;;;;;;;;5017650;28;20095;-80
2023/03/31 10:07:47;;;;;;;0.25;0.15;;;;;;;;;;5020220;28;20052;-79
2023/03/31 10:10:33;;;;;;;0.20;0.10;;;;;;;;;;5018456;28;20049;-80
2023/03/31 10:13:01;;;;;;;0.20;0.20;;;;;;;;;;5018864;28;20034;-80
2023/03/31 10:15:27;;;;;;;1.10;0.75;;;;;;;;;;5016516;28;20037;-78
2023/03/31 10:17:57;;;;;;;0.20;0.10;;;;;;;;;;5005677;28;20041;-78
2023/03/31 10:20:30;;;;;;;0.20;0.10;;;;;;;;;;5023178;28;20090;-79
2023/03/31 10:23:04;;;;;;;0.20;0.10;;;;;;;;;;5017194;28;20168;-78
2023/03/31 10:25:32;;;;;;;0.20;0.10;;;;;;;;;;5014646;28;20079;-79
2023/03/31 10:27:58;;;;;;;0.20;0.10;;;;;;;;;;5017991;28;20296;-80
2023/03/31 10:30:25;;;;;;;0.20;0.10;;;;;;;;;;5012563;28;20140;-78
2023/03/31 10:32:51;;;;;;;0.30;0.20;;;;;;;;;;5027591;28;20390;-78
2023/03/31 10:35:38;;;;;;;0.20;0.17;;;;;;;;;;5016001;28;20033;-78
2023/03/31 10:38:07;;;;;;;0.90;0.68;;;;;;;;;;5015197;28;20156;-80
2023/03/31 10:40:33;;;;;;;0.20;0.10;;;;;;;;;;5024394;28;20559;-81
2023/03/31 10:43:05;;;;;;;0.28;0.13;;;;;;;;;;5020868;28;20107;-81
2023/03/31 10:45:36;;;;;;;0.20;0.10;;;;;;;;;;5021695;22;20672;-74
2023/03/31 10:48:02;;;;;;;0.20;0.10;;;;;;;;;;4988813;28;20118;-76
2023/03/31 10:50:33;;;;;;;0.20;0.10;;;;;;;;;;4994614;28;20138;-74
2023/03/31 10:53:05;;;;;;;0.20;0.10;;;;;;;;;;4991780;28;20060;-74
2023/03/31 10:55:37;;;;;;;0.20;0.10;;;;;;;;;;4991311;28;20446;-75
2023/03/31 10:58:22;;;;;;;0.20;0.10;;;;;;;;;;4972022;28;20056;-76
2023/03/31 11:00:51;;;;;;;0.30;0.20;;;;;;;;;;4978119;28;20050;-76
2023/03/31 11:03:29;;;;;;;0.57;0.22;;;;;;;;;;4980195;28;20272;-77
2023/03/31 11:06:11;;;;;;;0.20;0.20;;;;;;;;;;4972271;28;20046;-75
2023/03/31 11:09:10;;;;;;;0.70;0.70;;;;;;;;;;4969831;28;20041;-78
2023/03/31 11:11:58;;;;;;;0.20;0.20;;;;;;;;;;4919640;28;20859;-74
2023/03/31 11:14:30;;;;;;;0.20;0.10;;;;;;;;;;4974668;28;20398;-75
2023/03/31 11:17:03;;;;;;;0.20;0.10;;;;;;;;;;4968163;28;20049;-76
2023/03/31 11:19:32;;;;;;;0.20;0.10;;;;;;;;;;4981626;28;20034;-75
2023/03/31 11:22:05;;;;;;;0.20;0.10;;;;;;;;;;4977665;28;20092;-75
2023/03/31 11:24:35;;;;;;;0.20;0.10;;;;;;;;;;4971548;28;20038;-74
2023/03/31 11:27:07;;;;;;;0.20;0.10;;;;;;;;;;4971581;28;20054;-74
2023/03/31 11:29:34;;;;;;;0.20;0.10;;;;;;;;;;4975453;28;20050;-75
2023/03/31 11:32:08;;;;;;;0.20;0.10;;;;;;;;;;4974687;28;20058;-74
2023/03/31 11:34:37;;;;;;;0.20;0.10;;;;;;;;;;4979362;28;20103;-74
2023/03/31 11:37:22;;;;;;;0.20;0.10;;;;;;;;;;4971724;28;20543;-76
2023/03/31 11:39:54;;;;;;;0.20;0.10;;;;;;;;;;4977443;28;20077;-75
2023/03/31 11:42:28;;;;;;;1.58;1.45;;;;;;;;;;4968670;28;21373;-75
2023/03/31 11:44:58;;;;;;;0.20;0.10;;;;;;;;;;4981678;28;20133;-75
2023/03/31 11:47:33;;;;;;;0.20;0.10;;;;;;;;;;4971099;28;20061;-74
2023/03/31 11:50:02;;;;;;;0.20;0.10;;;;;;;;;;4971712;28;20042;-75
2023/03/31 11:52:30;;;;;;;0.20;0.00;;;;;;;;;;4968768;28;20482;-74
2023/03/31 11:54:59;;;;;;;0.20;0.10;;;;;;;;;;4976877;28;20674;-74
2023/03/31 11:57:31;;;;;;;0.20;0.10;;;;;;;;;;4971170;28;20128;-75
2023/03/31 12:00:25;;;;;;;0.20;0.10;;;;;;;;;;4968991;28;20053;-75
2023/03/31 12:03:07;;;;;;;0.20;0.10;;;;;;;;;;4962834;28;20121;-75
2023/03/31 12:05:33;;;;;;;0.20;0.05;;;;;;;;;;4991608;28;20104;-74
2023/03/31 12:08:26;;;;;;;0.20;0.10;;;;;;;;;;4974969;28;20042;-75
2023/03/31 12:10:55;;;;;;;0.20;0.10;;;;;;;;;;4935400;28;20054;-75
2023/03/31 12:13:40;;;;;;;0.20;0.10;;;;;;;;;;4976006;28;20037;-76
2023/03/31 12:16:15;;;;;;;0.20;0.10;;;;;;;;;;4976810;28;20471;-75
2023/03/31 12:18:45;;;;;;;0.20;0.20;;;;;;;;;;4970669;28;20311;-75
2023/03/31 12:21:11;;;;;;;0.20;0.10;;;;;;;;;;4979662;28;20034;-75
2023/03/31 12:23:40;;;;;;;0.20;0.10;;;;;;;;;;4979534;28;20073;-75
2023/03/31 12:26:23;;;;;;;0.20;0.10;;;;;;;;;;4978818;28;20156;-75
2023/03/31 12:28:53;;;;;;;0.20;0.10;;;;;;;;;;4977958;28;20431;-75
2023/03/31 12:31:22;;;;;;;0.20;0.10;;;;;;;;;;4976434;28;20124;-74
2023/03/31 12:34:03;;;;;;;0.20;0.13;;;;;;;;;;4979267;28;20045;-74
2023/03/31 12:36:47;;;;;;;0.20;0.10;;;;;;;;;;4974809;28;20046;-74
2023/03/31 12:39:29;;;;;;;0.20;0.10;;;;;;;;;;4975898;28;20423;-75
2023/03/31 12:42:10;;;;;;;0.20;0.10;;;;;;;;;;4983558;28;20038;-75
2023/03/31 12:44:45;;;;;;;0.20;0.10;;;;;;;;;;4975653;28;20518;-74
2023/03/31 12:47:15;;;;;;;0.20;0.13;;;;;;;;;;4980153;28;20804;-74
2023/03/31 12:50:10;;;;;;;0.20;0.10;;;;;;;;;;4983414;28;20048;-75
2023/03/31 12:52:50;;;;;;;0.20;0.10;;;;;;;;;;4957147;28;20065;-75
2023/03/31 12:55:31;;;;;;;0.25;0.20;;;;;;;;;;4968361;28;20069;-74
2023/03/31 12:58:16;;;;;;;0.20;0.10;;;;;;;;;;4967858;28;20046;-74
2023/03/31 13:01:13;;;;;;;0.20;0.10;;;;;;;;;;4970547;28;20371;-74
2023/03/31 13:03:46;;;;;;;0.20;0.10;;;;;;;;;;4943739;28;20313;-76
2023/03/31 13:06:31;;;;;;;0.20;0.10;;;;;;;;;;4980666;28;20629;-75
2023/03/31 13:08:57;;;;;;;0.20;0.10;;;;;;;;;;4990856;28;20045;-75
2023/03/31 13:11:35;;;;;;;0.20;0.10;;;;;;;;;;4972841;28;20067;-75
2023/03/31 13:14:04;;;;;;;0.20;0.10;;;;;;;;;;4973237;28;20049;-76
2023/03/31 13:16:32;;;;;;;0.20;0.10;;;;;;;;;;4970086;28;20073;-76
2023/03/31 13:18:58;;;;;;;0.20;0.10;;;;;;;;;;4963680;28;20042;-74
2023/03/31 13:21:24;;;;;;;0.20;0.10;;;;;;;;;;4962215;28;20038;-74
2023/03/31 13:23:50;;;;;;;0.20;0.10;;;;;;;;;;4984966;28;20038;-74
2023/03/31 13:26:32;;;;;;;0.20;0.10;;;;;;;;;;4974868;28;20042;-76
2023/03/31 13:29:13;;;;;;;0.20;0.10;;;;;;;;;;4971768;28;20120;-75
2023/03/31 13:31:58;;;;;;;0.63;0.22;;;;;;;;;;4985851;28;20062;-75
2023/03/31 13:34:24;;;;;;;0.20;0.10;;;;;;;;;;4985670;28;20041;-75
2023/03/31 13:36:53;;;;;;;0.20;0.10;;;;;;;;;;4983575;28;20100;-75
2023/03/31 13:39:25;;;;;;;0.20;0.10;;;;;;;;;;4989673;28;20038;-74
2023/03/31 13:41:51;;;;;;;0.28;0.28;;;;;;;;;;4973949;28;20029;-75
2023/03/31 13:44:28;;;;;;;0.20;0.10;;;;;;;;;;4976551;28;20061;-75
2023/03/31 13:47:00;;;;;;;0.20;0.10;;;;;;;;;;4967934;28;20612;-74
2023/03/31 13:49:45;;;;;;;0.20;0.15;;;;;;;;;;4977498;28;20134;-75
2023/03/31 13:52:12;;;;;;;0.77;0.70;;;;;;;;;;4982382;28;20041;-75
2023/03/31 13:54:38;;;;;;;1.40;0.30;;;;;;;;;;4982848;28;20046;-74
2023/03/31 13:57:23;;;;;;;0.20;0.10;;;;;;;;;;4971366;28;20061;-74
2023/03/31 14:00:03;;;;;;;0.63;0.63;;;;;;;;;;4962786;28;20038;-73
2023/03/31 14:02:29;;;;;;;0.20;0.10;;;;;;;;;;4966990;28;20046;-75
2023/03/31 14:05:12;;;;;;;0.20;0.10;;;;;;;;;;4975059;28;20049;-75
2023/03/31 14:07:43;;;;;;;0.20;0.10;;;;;;;;;;4968767;28;20045;-76
2023/03/31 14:10:21;;;;;;;0.20;0.10;;;;;;;;;;4983745;28;20050;-76
2023/03/31 14:12:47;;;;;;;0.20;0.10;;;;;;;;;;4960243;28;20503;-76
2023/03/31 14:15:17;;;;;;;0.20;0.10;;;;;;;;;;4959747;28;20065;-75
2023/03/31 14:17:43;;;;;;;2.10;1.90;;;;;;;;;;4970464;28;20125;-75
2023/03/31 14:20:19;;;;;;;0.30;0.30;;;;;;;;;;4968748;28;20454;-76
2023/03/31 14:22:48;;;;;;;0.20;0.10;;;;;;;;;;4982691;28;20056;-74
2023/03/31 14:25:33;;;;;;;0.20;0.10;;;;;;;;;;4991188;28;20038;-76
2023/03/31 14:28:01;;;;;;;0.20;0.10;;;;;;;;;;4971396;28;20075;-77
2023/03/31 14:30:45;;;;;;;0.20;0.10;;;;;;;;;;4986679;28;20059;-74
2023/03/31 14:33:11;;;;;;;0.52;0.50;;;;;;;;;;4963097;28;20118;-74
2023/03/31 14:35:58;;;;;;;0.20;0.10;;;;;;;;;;4981692;28;20097;-74
2023/03/31 14:38:24;;;;;;;0.20;0.10;;;;;;;;;;4970032;28;20049;-75
2023/03/31 14:40:55;;;;;;;0.30;0.30;;;;;;;;;;4979803;28;20050;-74
2023/03/31 14:43:22;;;;;;;0.20;0.10;;;;;;;;;;4990117;28;20415;-74
2023/03/31 14:45:56;;;;;;;0.20;0.10;;;;;;;;;;4987844;28;20038;-74
2023/03/31 14:48:22;;;;;;;0.20;0.20;;;;;;;;;;4998737;28;20042;-74
2023/03/31 14:50:48;;;;;;;0.20;0.10;;;;;;;;;;4990404;28;20522;-74
2023/03/31 14:53:15;;;;;;;0.20;0.10;;;;;;;;;;4983214;28;20486;-76
2023/03/31 14:55:42;;;;;;;0.20;0.10;;;;;;;;;;4979930;28;20054;-76
2023/03/31 14:58:09;;;;;;;0.20;0.10;;;;;;;;;;4984986;28;20460;-74
2023/03/31 15:00:35;;;;;;;0.20;0.10;;;;;;;;;;4982243;28;20481;-75